Time;durP1;ratioP1;P1;durP2;ratioP2;P2;SDS_P1;SDS_P2;PMS_P1;PMS_P2;Temp;Humidity;BMP_temperature;BMP_pressure;BME280_temperature;BME280_humidity;BME280_pressure;Samples;Min_cycle;Max_cycle;Signal;HPM_P1;HPM_P2
2022/06/06 00:02:27;;;;;;;;;21.00;20.00;;;;;22.14;45.55;101056.40;110509;1260;20356;-44
2022/06/06 00:04:54;;;;;;;;;18.33;17.67;;;;;22.15;44.96;101050.45;110447;1259;24622;-47
2022/06/06 00:07:21;;;;;;;;;26.33;22.00;;;;;22.13;44.92;101045.80;110459;1260;19823;-46
2022/06/06 00:09:48;;;;;;;;;26.00;21.00;;;;;22.14;44.79;101044.73;110446;1260;23072;-48
2022/06/06 00:12:16;;;;;;;;;20.00;18.00;;;;;22.16;44.46;101050.17;110477;1261;19112;-47
2022/06/06 00:14:43;;;;;;;;;21.67;20.33;;;;;22.17;44.20;101050.38;110422;1260;19752;-47
2022/06/06 00:17:10;;;;;;;;;23.67;21.00;;;;;22.15;44.12;101048.48;110398;1261;26205;-47
2022/06/06 00:19:37;;;;;;;;;20.50;18.00;;;;;22.11;44.22;101048.48;110399;1261;19553;-46
2022/06/06 00:22:05;;;;;;;;;22.00;18.50;;;;;22.01;43.90;101040.94;110333;1261;21915;-47
2022/06/06 00:24:32;;;;;;;;;21.00;19.00;;;;;21.97;43.99;101031.52;110430;1260;20333;-48
2022/06/06 00:27:00;;;;;;;;;21.00;18.00;;;;;22.02;43.66;101035.20;110481;1260;23158;-46
2022/06/06 00:29:27;;;;;;;;;22.00;19.00;;;;;22.01;43.60;101026.54;110500;1261;23752;-46
2022/06/06 00:34:55;;;;;;;;;24.00;21.00;;;;;21.99;43.28;101020.13;110468;1260;19265;-49
2022/06/06 00:37:22;;;;;;;;;22.00;20.00;;;;;21.99;43.24;101016.27;110357;1261;19570;-46
2022/06/06 00:39:49;;;;;;;;;21.33;18.67;;;;;21.99;43.19;101011.91;110429;1261;20357;-47
2022/06/06 00:42:17;;;;;;;;;24.33;20.00;;;;;21.99;43.06;101011.16;110452;1260;19306;-48
2022/06/06 00:44:44;;;;;;;;;21.00;20.00;;;;;22.00;43.01;101011.91;110486;1260;20115;-47
2022/06/06 00:47:11;;;;;;;;;21.33;17.33;;;;;21.99;42.79;101011.50;110397;1261;20436;-48
2022/06/06 00:49:39;;;;;;;;;21.67;21.00;;;;;22.03;42.63;101013.02;110428;1260;19339;-47
2022/06/06 00:52:06;;;;;;;;;20.00;20.00;;;;;22.00;42.68;101012.52;110441;1260;19818;-47
2022/06/06 00:54:33;;;;;;;;;20.33;18.67;;;;;21.98;42.59;101012.70;110422;1261;20399;-46
2022/06/06 00:57:02;;;;;;;;;20.00;18.00;;;;;21.93;42.82;101011.54;110452;1261;22365;-47
2022/06/06 00:59:29;;;;;;;;;21.33;17.33;;;;;21.93;42.67;101013.52;110503;1260;23200;-46
2022/06/06 01:01:57;;;;;;;;;25.00;21.00;;;;;21.89;42.78;101012.10;110453;1260;20223;-47
2022/06/06 01:04:25;;;;;;;;;20.00;17.00;;;;;21.88;42.86;101008.80;110455;1260;19285;-47
2022/06/06 01:06:52;;;;;;;;;20.67;17.00;;;;;21.90;42.69;101009.09;110428;1259;19537;-47
2022/06/06 01:09:20;;;;;;;;;21.00;16.67;;;;;21.84;42.56;101014.74;110439;1260;23588;-47
2022/06/06 01:11:47;;;;;;;;;17.67;17.00;;;;;21.79;42.65;101008.35;110500;1260;23171;-47
2022/06/06 01:14:14;;;;;;;;;22.00;18.00;;;;;21.80;42.73;101003.58;110435;1261;23117;-47
2022/06/06 01:16:42;;;;;;;;;21.00;17.67;;;;;21.82;42.91;100998.05;110465;1260;21677;-48
2022/06/06 01:19:09;;;;;;;;;18.67;17.33;;;;;21.79;42.60;100993.62;110420;1260;19269;-48
2022/06/06 01:21:36;;;;;;;;;18.67;18.00;;;;;21.82;42.76;100990.61;110425;1261;19721;-47
2022/06/06 01:24:03;;;;;;;;;17.00;17.00;;;;;21.84;42.90;100989.46;110471;1260;20501;-48
2022/06/06 01:26:31;;;;;;;;;18.00;17.00;;;;;21.75;42.86;100984.98;110485;1261;20514;-47
2022/06/06 01:28:58;;;;;;;;;17.00;16.00;;;;;21.79;42.80;100988.63;110399;1261;20316;-47
2022/06/06 01:31:25;;;;;;;;;20.67;18.00;;;;;21.75;42.93;100981.42;110424;1260;20271;-48
2022/06/06 01:33:53;;;;;;;;;16.00;14.00;;;;;21.74;42.92;100984.10;110435;1260;23720;-48
2022/06/06 01:36:20;;;;;;;;;19.00;17.33;;;;;21.70;42.84;100981.24;110446;1261;19657;-49
2022/06/06 01:38:47;;;;;;;;;17.33;16.00;;;;;21.66;43.03;100979.88;110500;1260;20345;-47
2022/06/06 01:41:15;;;;;;;;;17.33;16.33;;;;;21.67;42.80;100982.50;110435;1261;23592;-48
2022/06/06 01:43:42;;;;;;;;;19.33;18.00;;;;;21.68;42.80;100982.45;110466;1260;20988;-49
2022/06/06 01:46:10;;;;;;;;;17.00;16.33;;;;;21.66;42.79;100983.56;110440;1260;23206;-47
2022/06/06 01:48:37;;;;;;;;;16.00;15.33;;;;;21.66;42.84;100985.57;110452;1259;22974;-47
2022/06/06 01:51:04;;;;;;;;;18.00;16.00;;;;;21.64;42.83;100987.27;110458;1260;19694;-47
2022/06/06 01:53:31;;;;;;;;;17.00;14.00;;;;;21.59;42.60;100988.86;110463;1261;20281;-47
2022/06/06 01:55:58;;;;;;;;;15.00;14.00;;;;;21.53;42.65;100989.78;110453;1261;24048;-48
2022/06/06 01:58:26;;;;;;;;;13.50;13.50;;;;;21.47;43.04;100986.98;110425;1261;19689;-48
2022/06/06 02:00:53;;;;;;;;;18.00;16.00;;;;;21.46;42.81;100979.61;110443;1260;22763;-47
2022/06/06 02:03:20;;;;;;;;;18.00;16.00;;;;;21.47;42.85;100973.20;110482;1260;23731;-47
2022/06/06 02:05:47;;;;;;;;;16.50;13.00;;;;;21.51;42.85;100970.31;110463;1259;20864;-47
2022/06/06 02:08:15;;;;;;;;;20.33;18.67;;;;;21.53;42.75;100966.88;110474;1260;20834;-47
2022/06/06 02:10:42;;;;;;;;;16.00;14.00;;;;;21.51;42.60;100967.27;110488;1260;19269;-47
2022/06/06 02:13:10;;;;;;;;;15.00;14.00;;;;;21.47;42.81;100973.40;110478;1260;23655;-48
2022/06/06 02:15:37;;;;;;;;;16.00;15.67;;;;;21.48;42.73;100975.44;110430;1261;21571;-47
2022/06/06 02:18:04;;;;;;;;;16.00;14.00;;;;;21.50;42.78;100975.98;110411;1261;22985;-49
2022/06/06 02:20:31;;;;;;;;;16.50;14.00;;;;;21.50;42.70;100983.41;110438;1260;23704;-51
2022/06/06 02:22:59;;;;;;;;;16.00;14.33;;;;;21.53;42.75;100979.17;110425;1260;20997;-47
2022/06/06 02:25:26;;;;;;;;;16.33;13.67;;;;;21.55;42.51;100981.27;110469;1260;23668;-49
2022/06/06 02:27:54;;;;;;;;;17.00;15.67;;;;;21.53;42.60;100977.05;110473;1259;30556;-48
2022/06/06 02:30:22;;;;;;;;;16.00;14.00;;;;;21.56;42.48;100980.11;110482;1260;20790;-47
2022/06/06 02:32:49;;;;;;;;;17.67;17.00;;;;;21.50;42.49;100978.85;110512;1259;23129;-47
2022/06/06 02:35:17;;;;;;;;;20.67;17.67;;;;;21.50;42.74;100973.60;110461;1260;19570;-46
2022/06/06 02:37:44;;;;;;;;;16.33;16.00;;;;;21.57;42.51;100971.08;110443;1258;20290;-48
2022/06/06 02:40:11;;;;;;;;;16.33;13.67;;;;;21.54;42.83;100973.45;110458;1259;19692;-47
2022/06/06 02:42:39;;;;;;;;;17.00;16.00;;;;;21.50;42.67;100974.95;110432;1259;21293;-47
2022/06/06 02:45:06;;;;;;;;;17.00;16.00;;;;;21.49;42.69;100978.20;110447;1260;20465;-46
2022/06/06 02:47:33;;;;;;;;;17.00;15.67;;;;;21.49;42.65;100975.16;110386;1260;19630;-50
2022/06/06 02:50:01;;;;;;;;;15.67;14.67;;;;;21.43;42.84;100977.27;110390;1261;23554;-47
2022/06/06 02:52:28;;;;;;;;;17.33;16.00;;;;;21.41;42.72;100973.52;110451;1260;20392;-48
2022/06/06 02:54:55;;;;;;;;;14.00;13.67;;;;;21.34;43.14;100971.91;110382;1261;19278;-47
2022/06/06 02:57:22;;;;;;;;;16.00;15.33;;;;;21.32;43.10;100966.66;110495;1261;22473;-47
2022/06/06 02:59:50;;;;;;;;;17.00;14.00;;;;;21.39;43.11;100964.50;110502;1260;20331;-47
2022/06/06 03:02:17;;;;;;;;;18.00;17.00;;;;;21.39;42.99;100964.09;110457;1261;21256;-48
2022/06/06 03:04:45;;;;;;;;;17.67;16.67;;;;;21.45;43.02;100962.48;110474;1259;23518;-48
2022/06/06 03:07:12;;;;;;;;;13.33;13.00;;;;;21.46;42.96;100965.65;110440;1260;20758;-48
2022/06/06 03:09:39;;;;;;;;;16.67;16.00;;;;;21.41;42.97;100977.16;110426;1260;23557;-47
2022/06/06 03:12:07;;;;;;;;;17.00;16.00;;;;;21.46;42.93;100977.08;110465;1260;21874;-47
2022/06/06 03:14:34;;;;;;;;;17.33;16.33;;;;;21.49;42.93;100989.86;110488;1261;20355;-49
2022/06/06 03:22:31;;;;;;;;;19.00;14.00;;;;;21.29;43.50;100992.42;110453;1260;20482;-47
2022/06/06 03:24:58;;;;;;;;;16.00;13.00;;;;;21.28;43.48;100987.36;110460;1259;19163;-46
2022/06/06 03:27:26;;;;;;;;;20.00;16.33;;;;;21.26;43.75;100981.00;110465;1260;19884;-46
2022/06/06 03:29:53;;;;;;;;;13.67;12.67;;;;;21.26;43.55;100979.77;110506;1260;24010;-48
2022/06/06 03:32:20;;;;;;;;;18.50;15.00;;;;;21.25;43.52;100975.95;110478;1260;19264;-48
2022/06/06 03:34:47;;;;;;;;;16.00;15.67;;;;;21.16;43.55;100980.63;110497;1261;23019;-47
2022/06/06 03:37:15;;;;;;;;;14.50;14.50;;;;;21.12;43.79;100983.52;110450;1260;20651;-48
2022/06/06 03:39:42;;;;;;;;;19.00;16.00;;;;;21.13;43.45;100986.98;110460;1258;19281;-47
2022/06/06 03:42:09;;;;;;;;;14.00;13.50;;;;;21.17;43.52;100984.90;110456;1261;23120;-47
2022/06/06 03:44:37;;;;;;;;;16.33;15.00;;;;;21.25;43.43;100987.30;110569;1258;20421;-48
2022/06/06 03:47:04;;;;;;;;;19.00;14.00;;;;;21.24;43.44;100995.45;110519;1259;21527;-48
2022/06/06 03:49:32;;;;;;;;;19.33;16.33;;;;;21.26;43.35;100993.57;110426;1260;20538;-47
2022/06/06 03:52:00;;;;;;;;;19.00;16.33;;;;;21.24;43.49;100991.98;110470;1260;20582;-48
2022/06/06 03:54:27;;;;;;;;;16.67;12.67;;;;;21.18;43.32;100995.73;110473;1259;19219;-46
2022/06/06 03:56:54;;;;;;;;;17.00;16.00;;;;;21.13;43.52;100994.25;110488;1260;19502;-48
2022/06/06 03:59:22;;;;;;;;;21.33;17.00;;;;;21.11;43.69;100993.61;110481;1261;20844;-48
2022/06/06 04:01:49;;;;;;;;;20.00;18.33;;;;;21.08;43.90;100992.45;110471;1260;21296;-47
2022/06/06 04:04:16;;;;;;;;;15.33;15.00;;;;;21.04;43.79;100987.27;110441;1260;22350;-48
2022/06/06 04:06:43;;;;;;;;;15.67;14.33;;;;;21.05;43.76;100987.14;110553;1258;20867;-46
2022/06/06 04:09:10;;;;;;;;;17.67;15.33;;;;;21.10;43.66;100979.73;110619;1258;19312;-48
2022/06/06 04:11:39;;;;;;;;;19.00;17.00;;;;;21.06;43.72;100981.45;110643;1258;19845;-47
2022/06/06 04:14:06;;;;;;;;;21.33;19.00;;;;;20.99;44.10;100981.66;110605;1258;20313;-47
2022/06/06 04:16:33;;;;;;;;;16.67;16.67;;;;;20.97;44.03;100978.08;110624;1258;19398;-47
2022/06/06 04:19:00;;;;;;;;;19.00;18.33;;;;;20.99;44.24;100976.08;110622;1258;19575;-48
2022/06/06 04:21:28;;;;;;;;;16.00;16.00;;;;;21.03;44.06;100971.20;110699;1258;20267;-47
2022/06/06 04:23:55;;;;;;;;;18.00;16.67;;;;;21.04;44.05;100975.49;110605;1259;23067;-47
2022/06/06 04:26:22;;;;;;;;;16.00;16.00;;;;;21.01;44.17;100976.60;110590;1258;19655;-49
2022/06/06 04:28:49;;;;;;;;;17.00;17.00;;;;;21.00;44.44;100978.16;110460;1259;23074;-48
2022/06/06 04:31:17;;;;;;;;;18.67;16.00;;;;;20.99;44.46;100982.58;110627;1259;19172;-49
2022/06/06 04:33:45;;;;;;;;;17.00;16.67;;;;;21.01;44.42;100988.38;110382;1259;19511;-46
2022/06/06 04:36:12;;;;;;;;;18.00;16.33;;;;;21.05;44.43;100991.17;110613;1259;20777;-46
2022/06/06 04:38:39;;;;;;;;;19.67;15.67;;;;;21.09;44.60;101000.05;110567;1258;20042;-50
2022/06/06 04:41:06;;;;;;;;;19.00;17.00;;;;;21.20;44.50;100994.27;110533;1259;19654;-47
2022/06/06 04:43:34;;;;;;;;;19.00;16.33;;;;;21.29;44.27;100996.06;110575;1259;20733;-46
2022/06/06 04:46:01;;;;;;;;;20.00;16.50;;;;;21.31;44.18;100995.33;110618;1259;23130;-48
2022/06/06 04:48:28;;;;;;;;;17.67;15.33;;;;;21.31;44.39;100992.43;110469;1259;24081;-47
2022/06/06 04:50:56;;;;;;;;;20.33;17.33;;;;;21.33;44.69;100991.27;110421;1260;20463;-47
2022/06/06 04:53:23;;;;;;;;;18.00;16.50;;;;;21.42;44.80;100998.34;110555;1258;20765;-49
2022/06/06 04:55:50;;;;;;;;;20.33;17.00;;;;;21.43;45.32;101000.35;110481;1258;20099;-48
2022/06/06 04:58:17;;;;;;;;;21.00;16.00;;;;;21.40;46.00;101006.18;110610;1258;21395;-47
2022/06/06 05:00:45;;;;;;;;;19.00;17.67;;;;;21.39;46.32;101006.95;110530;1258;20417;-49
2022/06/06 05:03:13;;;;;;;;;19.00;17.00;;;;;21.34;46.34;101007.91;110580;1259;20841;-48
2022/06/06 05:05:40;;;;;;;;;18.33;17.00;;;;;21.28;46.52;101004.95;110575;1259;22631;-45
2022/06/06 05:08:07;;;;;;;;;17.67;16.33;;;;;21.35;46.28;101004.39;110479;1260;19200;-48
2022/06/06 05:10:37;;;;;;;;;16.00;16.00;;;;;21.43;46.28;101004.16;110404;1259;19502;-48
2022/06/06 05:13:04;;;;;;;;;17.00;16.00;;;;;21.48;46.31;101004.64;110577;1258;20373;-47
2022/06/06 05:15:31;;;;;;;;;19.00;16.67;;;;;21.54;46.15;101008.02;110588;1259;19409;-47
2022/06/06 05:17:59;;;;;;;;;18.00;17.00;;;;;21.57;46.64;101012.50;110656;1259;19668;-47
2022/06/06 05:20:27;;;;;;;;;18.33;17.00;;;;;21.67;46.70;101007.80;110243;1259;21267;-46
2022/06/06 05:22:54;;;;;;;;;20.00;18.00;;;;;21.71;46.65;101007.21;110588;1258;19128;-46
2022/06/06 05:25:21;;;;;;;;;22.00;20.50;;;;;21.64;46.77;101006.00;110542;1259;19659;-47
2022/06/06 05:27:48;;;;;;;;;22.33;19.00;;;;;21.66;46.91;101002.06;110454;1261;23379;-47
2022/06/06 05:30:16;;;;;;;;;18.33;17.00;;;;;21.72;46.77;101002.55;110510;1259;19380;-47
2022/06/06 05:32:45;;;;;;;;;17.33;16.33;;;;;21.78;46.58;101001.56;110637;1258;20702;-46
2022/06/06 05:35:12;;;;;;;;;19.00;17.67;;;;;21.86;46.54;100999.36;110320;1260;20737;-46
2022/06/06 05:37:40;;;;;;;;;18.67;18.33;;;;;21.92;46.69;101000.48;110453;1258;19706;-46
2022/06/06 05:40:07;;;;;;;;;16.00;16.00;;;;;21.97;46.54;100994.80;110373;1259;19662;-46
2022/06/06 05:42:34;;;;;;;;;22.00;20.00;;;;;22.01;46.38;100986.39;110194;1261;216439;-47
2022/06/06 05:45:01;;;;;;;;;22.00;18.50;;;;;22.00;46.46;100986.46;110564;1258;19226;-47
2022/06/06 05:47:29;;;;;;;;;21.33;20.00;;;;;22.05;46.71;100990.11;110523;1258;23634;-46
2022/06/06 05:49:56;;;;;;;;;20.67;20.00;;;;;22.08;46.75;100986.09;110296;1259;21853;-47
2022/06/06 05:52:24;;;;;;;;;21.00;18.67;;;;;22.05;46.88;100979.29;110572;1258;23305;-48
2022/06/06 05:54:51;;;;;;;;;20.33;17.00;;;;;22.01;46.83;100974.74;110251;1260;19949;-48
2022/06/06 05:57:19;;;;;;;;;21.00;21.00;;;;;22.04;46.89;100975.45;110532;1258;20218;-49
2022/06/06 05:59:46;;;;;;;;;20.67;18.00;;;;;22.05;47.08;100972.23;110475;1259;19956;-47
2022/06/06 06:02:13;;;;;;;;;19.33;18.33;;;;;22.12;47.01;100972.49;110509;1258;19634;-48
2022/06/06 06:04:40;;;;;;;;;17.00;15.00;;;;;22.12;47.12;100974.37;110595;1258;20532;-47
2022/06/06 06:07:08;;;;;;;;;20.00;19.00;;;;;22.07;47.32;100964.89;110627;1258;19295;-46
2022/06/06 06:09:35;;;;;;;;;25.67;22.00;;;;;21.95;47.47;100969.94;110446;1260;19744;-46
2022/06/06 06:12:02;;;;;;;;;25.00;20.67;;;;;21.22;49.42;100970.20;110571;1258;23722;-47
2022/06/06 06:14:29;;;;;;;;;27.00;24.67;;;;;21.00;50.13;100968.65;110597;1259;20106;-48
2022/06/06 06:16:57;;;;;;;;;27.33;24.00;;;;;20.70;50.92;100969.39;110576;1258;19798;-47
2022/06/06 06:19:24;;;;;;;;;27.00;23.00;;;;;20.69;51.20;100971.76;110606;1258;20341;-46
2022/06/06 06:21:52;;;;;;;;;26.33;24.00;;;;;20.67;51.56;100970.73;110569;1258;19217;-47
2022/06/06 06:24:19;;;;;;;;;31.00;26.00;;;;;20.80;51.55;100969.55;110576;1259;19640;-45
2022/06/06 06:26:46;;;;;;;;;27.67;24.33;;;;;20.85;51.31;100967.67;110606;1258;20405;-46
2022/06/06 06:29:14;;;;;;;;;27.67;24.67;;;;;20.64;51.90;100958.88;110491;1258;19436;-47
2022/06/06 06:31:41;;;;;;;;;24.00;23.00;;;;;20.51;52.65;100962.73;110601;1258;23150;-48
2022/06/06 06:34:08;;;;;;;;;26.67;23.67;;;;;20.61;52.61;100957.52;110565;1258;23598;-46
2022/06/06 06:36:36;;;;;;;;;26.00;22.00;;;;;20.61;52.61;100959.64;110237;1260;19494;-46
2022/06/06 06:39:03;;;;;;;;;26.00;23.33;;;;;20.72;52.59;100962.62;110463;1259;20190;-48
2022/06/06 06:41:30;;;;;;;;;26.33;23.33;;;;;21.00;51.93;100965.11;110533;1259;22020;-45
2022/06/06 06:43:58;;;;;;;;;32.00;24.67;;;;;21.18;51.83;100971.23;110574;1259;20107;-47
2022/06/06 06:46:26;;;;;;;;;24.00;22.00;;;;;21.17;51.91;100971.45;110456;1260;22820;-48
2022/06/06 06:48:53;;;;;;;;;20.67;20.67;;;;;21.40;51.27;100967.00;110461;1261;20886;-47
2022/06/06 06:51:21;;;;;;;;;25.00;21.33;;;;;21.57;51.32;100970.91;110575;1258;21007;-48
2022/06/06 06:53:48;;;;;;;;;22.67;20.67;;;;;21.19;52.13;100967.77;110636;1258;23249;-47
2022/06/06 06:56:15;;;;;;;;;26.67;23.67;;;;;21.23;52.21;100965.66;110466;1260;20271;-47
2022/06/06 06:58:42;;;;;;;;;24.67;24.67;;;;;21.49;51.78;100955.33;110459;1260;19294;-47
2022/06/06 07:01:12;;;;;;;;;28.00;26.00;;;;;21.62;51.53;100955.61;110403;1261;19656;-47
2022/06/06 07:09:09;;;;;;;;;28.00;25.50;;;;;21.93;51.24;100958.55;110572;1258;19535;-48
2022/06/06 07:11:37;;;;;;;;;24.33;23.33;;;;;21.91;51.32;100958.98;110616;1259;22269;-48
2022/06/06 07:14:04;;;;;;;;;27.00;24.00;;;;;21.97;51.26;100959.67;110543;1258;23076;-50
2022/06/06 07:16:32;;;;;;;;;25.00;24.00;;;;;22.11;50.90;100960.84;110568;1259;19637;-47
2022/06/06 07:18:59;;;;;;;;;25.33;24.67;;;;;22.20;50.71;100959.81;110458;1260;20697;-46
2022/06/06 07:21:26;;;;;;;;;22.67;21.67;;;;;22.24;50.69;100955.11;110600;1258;21023;-47
2022/06/06 07:23:53;;;;;;;;;27.00;25.67;;;;;22.41;50.62;100952.90;110615;1258;19607;-46
2022/06/06 07:26:21;;;;;;;;;26.00;25.00;;;;;22.52;50.35;100952.09;110594;1258;20543;-47
2022/06/06 07:28:48;;;;;;;;;25.00;24.00;;;;;22.46;50.49;100953.20;110467;1260;19320;-46
2022/06/06 07:31:16;;;;;;;;;28.50;25.00;;;;;22.52;50.34;100950.37;110542;1258;21975;-47
2022/06/06 07:33:43;;;;;;;;;29.33;26.00;;;;;22.53;49.99;100946.77;110517;1259;21791;-47
2022/06/06 07:36:10;;;;;;;;;26.00;25.50;;;;;22.56;50.03;100942.19;110522;1259;19086;-49
2022/06/06 07:38:37;;;;;;;;;25.00;25.00;;;;;22.52;49.81;100935.06;110553;1259;19760;-47
2022/06/06 07:41:04;;;;;;;;;28.00;25.00;;;;;22.46;49.71;100928.58;110550;1259;20313;-47
2022/06/06 07:43:32;;;;;;;;;30.00;27.67;;;;;22.56;49.64;100919.77;110358;1260;20064;-50
2022/06/06 07:45:59;;;;;;;;;25.00;24.67;;;;;22.61;49.20;100910.98;110546;1258;21356;-46
2022/06/06 07:48:26;;;;;;;;;25.67;24.33;;;;;22.65;49.21;100909.70;110461;1258;24710;-47
2022/06/06 07:50:53;;;;;;;;;24.50;22.50;;;;;22.84;48.85;100903.04;110501;1259;19302;-47
2022/06/06 07:53:21;;;;;;;;;42.00;38.33;;;;;22.92;48.64;100896.24;110515;1258;20547;-48
2022/06/06 07:55:48;;;;;;;;;75.00;57.00;;;;;22.97;48.38;100891.65;110564;1258;21405;-47
2022/06/06 07:58:15;;;;;;;;;94.00;66.50;;;;;22.98;48.27;100898.92;110532;1258;23215;-47
2022/06/06 08:00:42;;;;;;;;;90.67;66.33;;;;;22.99;47.93;100899.45;110530;1258;22011;-47
2022/06/06 08:03:10;;;;;;;;;95.00;67.00;;;;;23.10;47.57;100900.15;110500;1258;20608;-47
2022/06/06 08:05:37;;;;;;;;;100.00;79.50;;;;;23.13;47.33;100894.61;110561;1258;20815;-46
2022/06/06 08:08:04;;;;;;;;;77.00;58.50;;;;;23.26;47.30;100892.20;110536;1258;23274;-47
2022/06/06 08:10:32;;;;;;;;;66.67;54.33;;;;;23.39;47.04;100890.13;110505;1258;20708;-48
2022/06/06 08:12:59;;;;;;;;;41.00;38.67;;;;;23.32;47.05;100895.54;110525;1258;23382;-48
2022/06/06 08:15:27;;;;;;;;;41.00;38.00;;;;;23.25;46.58;100888.83;110592;1258;19614;-48
2022/06/06 08:17:55;;;;;;;;;36.67;33.33;;;;;23.38;46.54;100890.23;110606;1259;23560;-46
2022/06/06 08:20:22;;;;;;;;;29.33;28.33;;;;;23.39;46.28;100892.55;110579;1258;19331;-45
2022/06/06 08:22:50;;;;;;;;;25.00;25.00;;;;;23.48;46.49;100889.42;110437;1259;21921;-47
2022/06/06 08:25:17;;;;;;;;;28.00;23.33;;;;;23.56;46.26;100896.73;110464;1258;23583;-45
2022/06/06 08:27:44;;;;;;;;;26.50;25.00;;;;;23.53;45.84;100896.84;110561;1258;19249;-47
2022/06/06 08:30:12;;;;;;;;;25.33;22.67;;;;;23.53;45.35;100890.96;110580;1258;21812;-49
2022/06/06 08:32:39;;;;;;;;;27.00;26.00;;;;;23.60;44.95;100889.13;110650;1258;20643;-47
2022/06/06 08:35:07;;;;;;;;;27.00;24.33;;;;;23.51;44.23;100894.15;110518;1259;27257;-48
2022/06/06 08:37:34;;;;;;;;;25.67;24.67;;;;;23.42;44.08;100888.34;110556;1259;19658;-45
2022/06/06 08:40:01;;;;;;;;;23.00;22.33;;;;;23.39;43.95;100885.02;110538;1258;22771;-48
2022/06/06 08:42:28;;;;;;;;;28.00;22.50;;;;;23.36;43.97;100879.23;110596;1258;24129;-48
2022/06/06 08:44:56;;;;;;;;;26.67;22.67;;;;;23.36;44.25;100889.82;110398;1259;19876;-46
2022/06/06 08:47:23;;;;;;;;;25.67;25.67;;;;;23.34;44.35;100881.39;110443;1258;20381;-44
2022/06/06 08:52:35;;;;;;;;;27.33;24.33;;;;;23.43;44.47;100871.05;110575;1258;19775;-48
2022/06/06 08:55:03;;;;;;;;;26.00;23.50;;;;;23.46;44.80;100871.77;110595;1259;20481;-46
2022/06/06 08:57:30;;;;;;;;;26.67;23.67;;;;;23.49;45.30;100870.33;110590;1258;19393;-48
2022/06/06 08:59:57;;;;;;;;;24.00;22.33;;;;;23.48;45.75;100870.20;110666;1258;21101;-46
2022/06/06 09:02:25;;;;;;;;;24.50;23.50;;;;;23.40;46.38;100861.38;110564;1258;20332;-46
2022/06/06 09:04:52;;;;;;;;;26.00;25.67;;;;;23.35;46.31;100858.75;110538;1258;19388;-47
2022/06/06 09:07:19;;;;;;;;;31.67;26.67;;;;;23.32;46.34;100854.72;110456;1259;23122;-49
2022/06/06 09:09:47;;;;;;;;;27.00;26.50;;;;;23.29;46.20;100853.49;110551;1258;20426;-46
2022/06/06 09:12:14;;;;;;;;;26.00;23.00;;;;;23.35;46.15;100855.56;110511;1258;19340;-47
2022/06/06 09:14:41;;;;;;;;;26.50;23.00;;;;;23.42;45.96;100853.63;110593;1258;19662;-47
2022/06/06 09:17:08;;;;;;;;;25.33;22.67;;;;;23.50;45.61;100853.94;110484;1258;21594;-46
2022/06/06 09:19:35;;;;;;;;;26.33;23.33;;;;;23.52;44.86;100850.55;110515;1258;19371;-49
2022/06/06 09:22:03;;;;;;;;;23.00;23.00;;;;;23.50;45.09;100846.61;110453;1258;23817;-51
2022/06/06 09:24:30;;;;;;;;;26.00;24.00;;;;;23.53;45.22;100843.90;110576;1259;20336;-47
2022/06/06 09:26:57;;;;;;;;;31.67;26.00;;;;;23.57;45.07;100835.46;110559;1259;23483;-49
2022/06/06 09:29:25;;;;;;;;;26.33;24.33;;;;;23.66;44.70;100832.73;110426;1261;19707;-49
2022/06/06 09:31:52;;;;;;;;;22.00;20.00;;;;;23.64;44.62;100835.94;110571;1259;20368;-48
2022/06/06 09:34:20;;;;;;;;;25.67;24.00;;;;;23.58;43.97;100839.80;110555;1259;19859;-45
2022/06/06 09:36:47;;;;;;;;;23.00;21.67;;;;;23.54;43.16;100835.63;110439;1260;20046;-48
2022/06/06 09:39:14;;;;;;;;;22.33;21.67;;;;;23.54;42.40;100833.94;110604;1258;22612;-47
2022/06/06 09:41:41;;;;;;;;;18.00;18.00;;;;;23.67;42.43;100832.77;110591;1259;19024;-47
2022/06/06 09:44:09;;;;;;;;;21.50;21.50;;;;;23.82;41.71;100833.99;110582;1258;22969;-48
2022/06/06 09:46:36;;;;;;;;;25.00;20.33;;;;;23.81;41.25;100830.39;110377;1260;20692;-47
2022/06/06 09:49:04;;;;;;;;;19.50;19.00;;;;;23.87;40.80;100827.55;110275;1261;23685;-46
2022/06/06 09:51:31;;;;;;;;;19.00;18.00;;;;;23.82;40.02;100830.74;110529;1258;19599;-46
2022/06/06 09:59:27;;;;;;;;;21.00;20.33;;;;;23.79;39.39;100821.15;110204;1263;19853;-46
2022/06/06 10:01:54;;;;;;;;;18.00;16.00;;;;;23.86;39.65;100826.23;110222;1264;20429;-48
2022/06/06 10:04:21;;;;;;;;;20.50;19.00;;;;;23.92;39.29;100830.46;110084;1264;20214;-45
2022/06/06 10:06:49;;;;;;;;;20.00;18.67;;;;;23.93;39.08;100825.75;110125;1264;19803;-47
2022/06/06 10:09:16;;;;;;;;;23.33;23.00;;;;;23.95;39.40;100821.25;109982;1265;21995;-46
2022/06/06 10:11:43;;;;;;;;;24.00;22.33;;;;;24.03;39.86;100825.48;109978;1264;23542;-47
2022/06/06 10:14:11;;;;;;;;;21.00;19.00;;;;;24.07;39.91;100828.20;110033;1264;19837;-48
2022/06/06 10:16:38;;;;;;;;;23.00;22.00;;;;;24.07;39.82;100824.98;110097;1264;20322;-47
2022/06/06 10:19:05;;;;;;;;;21.00;19.33;;;;;24.05;39.60;100823.59;110132;1264;19274;-47
2022/06/06 10:21:33;;;;;;;;;19.00;18.33;;;;;24.00;39.70;100828.85;110092;1264;19573;-48
2022/06/06 10:24:00;;;;;;;;;24.33;22.00;;;;;23.99;40.09;100821.77;110133;1264;21521;-46
2022/06/06 10:26:27;;;;;;;;;19.50;18.50;;;;;24.10;40.16;100825.28;110090;1264;19349;-47
2022/06/06 10:28:55;;;;;;;;;22.00;22.00;;;;;24.13;39.21;100817.61;110118;1264;22172;-47
2022/06/06 10:31:22;;;;;;;;;17.67;17.67;;;;;24.12;38.42;100812.86;110116;1264;21233;-47
2022/06/06 10:33:49;;;;;;;;;20.00;18.00;;;;;24.17;37.17;100822.40;110128;1260;23619;-45
2022/06/06 10:36:16;;;;;;;;;18.00;18.00;;;;;24.20;36.58;100811.56;110389;1260;20480;-49
2022/06/06 10:38:44;;;;;;;;;16.67;15.67;;;;;24.20;36.54;100804.99;110418;1261;20603;-47
2022/06/06 10:41:11;;;;;;;;;18.00;18.00;;;;;24.31;36.52;100810.80;110422;1260;19194;-47
2022/06/06 10:43:38;;;;;;;;;16.67;16.00;;;;;24.33;36.25;100813.22;110405;1260;19591;-47
2022/06/06 10:46:05;;;;;;;;;16.67;16.00;;;;;24.35;36.00;100806.97;110399;1260;20400;-47
2022/06/06 10:48:33;;;;;;;;;20.00;19.00;;;;;24.33;35.77;100812.92;110259;1260;19279;-46
2022/06/06 10:53:45;;;;;;;;;16.00;15.00;;;;;24.37;34.33;100808.52;110363;1260;23137;-46
2022/06/06 10:56:12;;;;;;;;;16.00;15.00;;;;;24.32;33.69;100804.58;110326;1260;20600;-49
2022/06/06 10:58:40;;;;;;;;;15.00;15.00;;;;;24.32;33.08;100805.13;110390;1260;21890;-47
2022/06/06 11:01:07;;;;;;;;;17.00;15.00;;;;;24.38;33.55;100809.83;110430;1260;20672;-47
2022/06/06 11:03:34;;;;;;;;;16.00;16.00;;;;;24.42;34.13;100808.67;110448;1261;19224;-45
2022/06/06 11:06:02;;;;;;;;;16.00;15.00;;;;;24.36;34.38;100805.08;110413;1259;19720;-47
2022/06/06 11:08:30;;;;;;;;;16.67;16.00;;;;;24.33;34.72;100802.44;110434;1260;20449;-47
2022/06/06 11:10:57;;;;;;;;;19.00;16.00;;;;;24.33;35.16;100805.18;110448;1260;23563;-47
2022/06/06 11:13:29;;;;;;;;;17.33;16.00;;;;;24.34;35.90;100801.65;110456;1260;20323;-47
2022/06/06 11:15:56;;;;;;;;;18.00;16.00;;;;;24.36;36.65;100790.63;110451;1261;21704;-48
2022/06/06 11:18:23;;;;;;;;;18.00;18.00;;;;;24.35;37.07;100786.13;110452;1261;19213;-47
2022/06/06 11:20:51;;;;;;;;;20.33;19.00;;;;;24.37;36.86;100787.19;110482;1260;19443;-47
2022/06/06 11:23:18;;;;;;;;;17.00;16.00;;;;;24.32;37.16;100785.95;110445;1260;20313;-46
2022/06/06 11:25:45;;;;;;;;;20.00;18.00;;;;;24.27;37.08;100782.27;110414;1261;23583;-48
2022/06/06 11:28:12;;;;;;;;;19.00;18.00;;;;;24.28;36.73;100785.95;110449;1261;19780;-45